createdAt,value
2024-01-24T00:02:18.735Z,97506.22
2024-01-24T00:04:45.384Z,97498.78
2024-01-24T00:07:15.970Z,97498.53
2024-01-24T00:09:43.659Z,97514.50
2024-01-24T00:12:11.392Z,97511.66
2024-01-24T00:14:37.911Z,97504.72
2024-01-24T00:17:04.523Z,97491.34
2024-01-24T00:19:31.276Z,97489.44
2024-01-24T00:21:58.145Z,97482.69
2024-01-24T00:24:24.649Z,97492.97
2024-01-24T00:26:51.187Z,97485.78
2024-01-24T00:29:17.724Z,97473.34
2024-01-24T00:31:44.362Z,97480.31
2024-01-24T00:34:10.977Z,97475.59
2024-01-24T00:36:37.755Z,97465.06
2024-01-24T00:39:04.745Z,97474.41
2024-01-24T00:41:31.243Z,97459.63
2024-01-24T00:44:03.965Z,97440.59
2024-01-24T00:46:30.436Z,97431.75
2024-01-24T00:48:57.045Z,97442.03
2024-01-24T00:51:24.001Z,97429.34
2024-01-24T00:53:55.086Z,97421.53
2024-01-24T00:56:21.820Z,97421.19
2024-01-24T00:58:54.367Z,97439.16
2024-01-24T01:01:23.051Z,97434.44
2024-01-24T01:03:58.600Z,97428.22
2024-01-24T01:06:30.436Z,97419.50
2024-01-24T01:08:56.913Z,97429.81
2024-01-24T01:11:23.491Z,97414.31
2024-01-24T01:13:49.955Z,97421.13
2024-01-24T01:16:17.534Z,97420.84
2024-01-24T01:18:56.266Z,97425.03
2024-01-24T01:21:22.835Z,97416.06
2024-01-24T01:23:50.350Z,97393.41
2024-01-24T01:26:16.902Z,97390.63
2024-01-24T01:28:43.378Z,97376.16
2024-01-24T01:31:10.058Z,97378.41
2024-01-24T01:33:37.875Z,97365.50
2024-01-24T01:36:14.222Z,97378.06
2024-01-24T01:38:49.110Z,97374.22
2024-01-24T01:41:15.688Z,97378.53
2024-01-24T01:43:42.207Z,97374.00
2024-01-24T01:46:21.574Z,97382.19
2024-01-24T01:48:50.671Z,97356.00
2024-01-24T01:51:23.803Z,97372.13
2024-01-24T01:53:50.647Z,97378.78
2024-01-24T01:56:21.036Z,97374.94
2024-01-24T01:58:50.563Z,97369.00
2024-01-24T02:01:20.474Z,97362.22
2024-01-24T02:03:47.585Z,97358.88
2024-01-24T02:06:15.367Z,97366.81
2024-01-24T02:08:44.345Z,97367.25
2024-01-24T02:11:11.641Z,97377.56
2024-01-24T02:13:39.303Z,97372.19
2024-01-24T02:16:06.339Z,97369.34
2024-01-24T02:18:33.537Z,97355.56
2024-01-24T02:21:00.976Z,97352.84
2024-01-24T02:23:27.886Z,97363.25
2024-01-24T02:25:54.819Z,97339.38
2024-01-24T02:28:22.382Z,97341.41
2024-01-24T02:30:49.011Z,97338.41
2024-01-24T02:33:15.919Z,97330.06
2024-01-24T02:35:42.623Z,97330.91
2024-01-24T02:38:09.230Z,97328.44
2024-01-24T02:40:35.763Z,97330.03
2024-01-24T02:43:02.299Z,97328.94
2024-01-24T02:45:28.875Z,97327.28
2024-01-24T02:47:55.555Z,97320.28
2024-01-24T02:50:22.135Z,97335.16
2024-01-24T02:52:48.650Z,97318.75
2024-01-24T02:55:18.409Z,97299.28
2024-01-24T02:57:46.675Z,97317.41
2024-01-24T03:00:16.956Z,97307.97
2024-01-24T03:02:43.817Z,97292.19
2024-01-24T03:05:10.995Z,97290.81
2024-01-24T03:07:38.006Z,97284.09
2024-01-24T03:10:05.685Z,97280.09
2024-01-24T03:12:33.278Z,97293.06
2024-01-24T03:15:00.965Z,97289.31
2024-01-24T03:17:27.473Z,97286.09
2024-01-24T03:19:54.087Z,97278.97
2024-01-24T03:22:21.304Z,97258.44
2024-01-24T03:24:48.817Z,97266.63
2024-01-24T03:27:16.449Z,97252.63
2024-01-24T03:29:43.781Z,97257.84
2024-01-24T03:32:10.910Z,97255.44
2024-01-24T03:34:38.576Z,97254.22
2024-01-24T03:37:05.399Z,97252.13
2024-01-24T03:39:31.917Z,97263.97
2024-01-24T03:41:58.498Z,97266.44
2024-01-24T03:44:25.536Z,97270.03
2024-01-24T03:46:54.013Z,97271.84
2024-01-24T03:49:22.783Z,97255.78
2024-01-24T03:51:49.569Z,97239.72
2024-01-24T03:54:16.566Z,97227.41
2024-01-24T03:56:44.560Z,97226.75
2024-01-24T03:59:11.596Z,97230.91
2024-01-24T04:01:38.247Z,97233.91
2024-01-24T04:04:05.622Z,97229.66
2024-01-24T04:06:32.473Z,97226.38
2024-01-24T04:08:59.004Z,97219.78
2024-01-24T04:11:25.482Z,97211.13
2024-01-24T04:13:57.740Z,97219.66
2024-01-24T04:16:25.405Z,97217.47
2024-01-24T04:18:53.642Z,97229.16
2024-01-24T04:21:21.026Z,97221.03
2024-01-24T04:23:47.574Z,97221.31
2024-01-24T04:26:14.065Z,97224.59
2024-01-24T04:28:40.545Z,97219.66
2024-01-24T04:31:08.357Z,97230.09
2024-01-24T04:33:36.481Z,97226.09
2024-01-24T04:36:03.407Z,97225.56
2024-01-24T04:38:29.938Z,97237.47
2024-01-24T04:40:56.461Z,97229.94
2024-01-24T04:43:23.078Z,97214.69
2024-01-24T04:45:50.076Z,97224.28
2024-01-24T04:48:16.762Z,97226.78
2024-01-24T04:50:43.466Z,97226.50
2024-01-24T04:53:11.032Z,97223.59
2024-01-24T04:55:38.040Z,97218.94
2024-01-24T04:58:05.644Z,97212.34
2024-01-24T05:00:32.297Z,97205.59
2024-01-24T05:02:58.912Z,97202.56
2024-01-24T05:05:25.397Z,97197.47
2024-01-24T05:07:51.900Z,97193.50
2024-01-24T05:10:18.471Z,97185.06
2024-01-24T05:12:44.978Z,97168.19
2024-01-24T05:15:14.491Z,97178.63
2024-01-24T05:17:43.192Z,97162.38
2024-01-24T05:20:11.906Z,97154.16
2024-01-24T05:22:38.835Z,97151.53
2024-01-24T05:25:06.289Z,97157.41
2024-01-24T05:27:33.028Z,97156.56
2024-01-24T05:30:00.878Z,97154.13
2024-01-24T05:32:32.772Z,97159.13
2024-01-24T05:34:59.322Z,97149.16
2024-01-24T05:37:25.893Z,97124.53
2024-01-24T05:39:52.446Z,97128.25
2024-01-24T05:42:18.974Z,97124.34
2024-01-24T05:44:45.474Z,97110.03
2024-01-24T05:47:12.099Z,97131.91
2024-01-24T05:49:39.645Z,97130.22
2024-01-24T05:52:06.845Z,97135.28
2024-01-24T05:54:33.947Z,97140.53
2024-01-24T05:57:01.152Z,97137.25
2024-01-24T05:59:27.734Z,97126.72
2024-01-24T06:01:54.308Z,97111.50
2024-01-24T06:04:20.929Z,97132.38
2024-01-24T06:06:47.598Z,97117.34
2024-01-24T06:09:14.174Z,97130.75
2024-01-24T06:11:40.699Z,97132.97
2024-01-24T06:14:07.242Z,97123.31
2024-01-24T06:16:33.782Z,97112.94
2024-01-24T06:19:00.439Z,97114.81
2024-01-24T06:21:27.023Z,97121.03
2024-01-24T06:23:53.500Z,97107.06
2024-01-24T06:26:20.012Z,97117.16
2024-01-24T06:28:47.736Z,97093.81
2024-01-24T06:31:15.950Z,97085.47
2024-01-24T06:33:42.578Z,97079.78
2024-01-24T06:36:10.076Z,97089.66
2024-01-24T06:38:36.618Z,97091.13
2024-01-24T06:41:03.258Z,97099.50
2024-01-24T06:43:30.415Z,97089.00
2024-01-24T06:45:57.164Z,97083.59
2024-01-24T06:48:23.890Z,97082.22
2024-01-24T06:50:50.514Z,97061.53
2024-01-24T06:53:17.047Z,97080.22
2024-01-24T06:55:45.185Z,97090.25
2024-01-24T06:58:11.864Z,97083.81
2024-01-24T07:00:38.521Z,97061.13
2024-01-24T07:03:05.690Z,97065.88
2024-01-24T07:05:32.201Z,97057.88
2024-01-24T07:07:59.056Z,97054.97
2024-01-24T07:10:25.623Z,97058.94
2024-01-24T07:12:52.651Z,97051.56
2024-01-24T07:15:19.731Z,97051.69
2024-01-24T07:17:46.652Z,97039.78
2024-01-24T07:20:14.300Z,97046.97
2024-01-24T07:22:40.843Z,97054.69
2024-01-24T07:25:09.717Z,97062.81
2024-01-24T07:27:38.456Z,97053.53
2024-01-24T07:30:05.689Z,97052.97
2024-01-24T07:32:32.753Z,97062.56
2024-01-24T07:35:02.804Z,97057.72
2024-01-24T07:37:31.628Z,97039.59
2024-01-24T07:40:04.484Z,97039.56
2024-01-24T07:42:32.257Z,97033.31
2024-01-24T07:45:00.838Z,97011.44
2024-01-24T07:47:27.991Z,97021.94
2024-01-24T07:49:56.740Z,97024.47
2024-01-24T07:52:32.197Z,97027.03
2024-01-24T07:55:17.532Z,97044.94
2024-01-24T07:57:44.448Z,97041.38
2024-01-24T08:00:18.413Z,97041.44
2024-01-24T08:02:46.059Z,97035.31
2024-01-24T08:05:14.082Z,97036.09
2024-01-24T08:07:42.365Z,97041.38
2024-01-24T08:10:13.164Z,97039.78
2024-01-24T08:12:40.878Z,97037.72
2024-01-24T08:15:08.204Z,97046.06
2024-01-24T08:17:38.027Z,97035.28
2024-01-24T08:20:10.747Z,97014.03
2024-01-24T08:22:38.817Z,97024.66
2024-01-24T08:25:05.908Z,97022.63
2024-01-24T08:27:32.625Z,97024.66
2024-01-24T08:30:00.622Z,97028.00
2024-01-24T08:32:27.349Z,97015.56
2024-01-24T08:34:54.231Z,97005.44
2024-01-24T08:37:21.841Z,97013.00
2024-01-24T08:39:48.564Z,97010.88
2024-01-24T08:42:15.086Z,97015.75
2024-01-24T08:44:41.616Z,97024.81
2024-01-24T08:47:08.134Z,97012.09
2024-01-24T08:49:34.795Z,97033.50
2024-01-24T08:52:03.470Z,97035.72
2024-01-24T08:54:30.617Z,97038.00
2024-01-24T08:56:57.759Z,97035.44
2024-01-24T08:59:26.428Z,97029.41
2024-01-24T09:01:56.509Z,97033.16
2024-01-24T09:04:23.261Z,97054.47
2024-01-24T09:06:50.204Z,97045.66
2024-01-24T09:09:17.369Z,97053.56
2024-01-24T09:11:50.797Z,97045.06
2024-01-24T09:14:24.557Z,97012.00
2024-01-24T09:16:51.194Z,97007.94
2024-01-24T09:19:21.479Z,97002.84
2024-01-24T09:21:48.272Z,96995.00
2024-01-24T09:24:15.247Z,96996.47
2024-01-24T09:26:42.003Z,96999.94
2024-01-24T09:29:13.139Z,97009.44
2024-01-24T09:31:44.647Z,97018.44
2024-01-24T09:34:12.202Z,97009.59
2024-01-24T09:36:38.917Z,97009.91
2024-01-24T09:39:05.441Z,97014.00
2024-01-24T09:41:41.045Z,97006.47
2024-01-24T09:44:10.218Z,97012.22
2024-01-24T09:46:46.176Z,97003.38
2024-01-24T09:49:13.069Z,97009.41
2024-01-24T09:51:41.100Z,97018.94
2024-01-24T09:54:08.593Z,97029.41
2024-01-24T09:56:44.429Z,97026.00
2024-01-24T09:59:12.781Z,97028.63
2024-01-24T10:01:40.603Z,97034.00
2024-01-24T10:04:08.676Z,97024.34
2024-01-24T10:06:41.236Z,97007.19
2024-01-24T10:09:09.121Z,96991.56
2024-01-24T10:11:36.040Z,97012.13
2024-01-24T10:14:02.827Z,97007.34
2024-01-24T10:16:29.374Z,97021.81
2024-01-24T10:18:58.442Z,97031.50
2024-01-24T10:21:26.926Z,97044.34
2024-01-24T10:23:57.116Z,97011.19
2024-01-24T10:26:24.001Z,97025.88
2024-01-24T10:28:56.746Z,97044.47
2024-01-24T10:31:25.047Z,97058.56
2024-01-24T10:33:58.869Z,97033.22
2024-01-24T10:36:32.702Z,97036.88
2024-01-24T10:39:04.821Z,97061.06
2024-01-24T10:41:33.470Z,97050.44
2024-01-24T10:44:10.721Z,97053.06
2024-01-24T10:46:53.361Z,97037.16
2024-01-24T10:49:22.733Z,97044.88
2024-01-24T10:51:52.151Z,97028.50
2024-01-24T10:54:20.808Z,97048.56
2024-01-24T10:56:51.232Z,97053.94
2024-01-24T10:59:19.003Z,97066.31
2024-01-24T11:01:46.393Z,97060.03
2024-01-24T11:04:20.405Z,97042.50
2024-01-24T11:07:02.984Z,97053.97
2024-01-24T11:09:54.441Z,97067.19
2024-01-24T11:12:22.650Z,97048.22
2024-01-24T11:14:49.988Z,97045.13
2024-01-24T11:17:17.282Z,97038.88
2024-01-24T11:19:47.977Z,97052.19
2024-01-24T11:22:30.153Z,97066.06
2024-01-24T11:25:02.801Z,97045.97
2024-01-24T11:27:37.206Z,97083.59
2024-01-24T11:30:36.897Z,97071.78
2024-01-24T11:33:05.912Z,97082.09
2024-01-24T11:35:37.210Z,97060.97
2024-01-24T11:38:27.611Z,97052.13
2024-01-24T11:41:02.979Z,97057.16
2024-01-24T11:43:35.176Z,97064.81
2024-01-24T11:46:07.008Z,97056.84
2024-01-24T11:48:36.384Z,97041.38
2024-01-24T11:51:03.594Z,97056.28
2024-01-24T11:53:30.648Z,97029.16
2024-01-24T11:56:05.754Z,97016.78
2024-01-24T11:58:33.021Z,97052.06
2024-01-24T12:01:04.555Z,97049.72
2024-01-24T12:03:31.315Z,97047.06
2024-01-24T12:05:58.995Z,97060.59
2024-01-24T12:08:26.218Z,97055.66
2024-01-24T12:10:52.891Z,97050.47
2024-01-24T12:13:22.989Z,97040.25
2024-01-24T12:15:52.238Z,97059.59
2024-01-24T12:18:20.683Z,97043.88
2024-01-24T12:20:49.463Z,97042.47
2024-01-24T12:23:17.677Z,97039.50
2024-01-24T12:25:48.150Z,97029.47
2024-01-24T12:28:15.572Z,97026.00
2024-01-24T12:30:48.158Z,97030.53
2024-01-24T12:33:18.642Z,97034.53
2024-01-24T12:35:47.815Z,97013.41
2024-01-24T12:38:15.668Z,97031.16
2024-01-24T12:40:51.823Z,97019.88
2024-01-24T12:43:22.756Z,97036.06
2024-01-24T12:45:51.662Z,97019.34
2024-01-24T12:48:19.867Z,97052.78
2024-01-24T12:50:49.780Z,97057.75
2024-01-24T12:53:17.181Z,97073.00
2024-01-24T12:55:43.734Z,97064.25
2024-01-24T12:58:11.027Z,97089.41
2024-01-24T13:00:37.874Z,97096.69
2024-01-24T13:03:06.484Z,97106.09
2024-01-24T13:05:42.819Z,97112.66
2024-01-24T13:08:14.888Z,97111.00
2024-01-24T13:10:45.286Z,97112.94
2024-01-24T13:13:12.827Z,97116.56
2024-01-24T13:15:40.507Z,97120.06
2024-01-24T13:18:09.167Z,97156.81
2024-01-24T13:20:39.011Z,97136.81
2024-01-24T13:23:09.697Z,97131.69
2024-01-24T13:25:36.271Z,97139.00
2024-01-24T13:28:04.003Z,97151.94
2024-01-24T13:30:30.992Z,97158.56
2024-01-24T13:32:58.785Z,97171.56
2024-01-24T13:35:25.678Z,97158.59
2024-01-24T13:37:53.228Z,97171.81
2024-01-24T13:40:20.028Z,97165.84
2024-01-24T13:42:46.785Z,97180.16
2024-01-24T13:45:13.400Z,97175.34
2024-01-24T13:47:39.946Z,97194.94
2024-01-24T13:50:07.613Z,97176.34
2024-01-24T13:52:34.755Z,97203.78
2024-01-24T13:55:01.470Z,97209.88
2024-01-24T13:57:28.184Z,97198.03
2024-01-24T13:59:56.283Z,97208.25
2024-01-24T14:02:23.060Z,97206.63
2024-01-24T14:04:50.976Z,97207.31
2024-01-24T14:07:17.871Z,97207.97
2024-01-24T14:09:45.568Z,97231.66
2024-01-24T14:12:12.434Z,97230.03
2024-01-24T14:14:40.140Z,97246.75
2024-01-24T14:17:14.798Z,97237.22
2024-01-24T14:20:23.319Z,97237.59
2024-01-24T14:22:50.105Z,97242.50
2024-01-24T14:25:16.858Z,97237.91
2024-01-24T14:27:44.360Z,97243.63
2024-01-24T14:30:11.689Z,97250.41
2024-01-24T14:32:39.666Z,97263.88
2024-01-24T14:35:07.552Z,97261.72
2024-01-24T14:37:40.919Z,97264.84
2024-01-24T14:40:08.367Z,97278.63
2024-01-24T14:42:36.659Z,97262.03
2024-01-24T14:45:03.788Z,97273.88
2024-01-24T14:47:37.364Z,97286.84
2024-01-24T14:50:04.831Z,97279.28
2024-01-24T14:52:31.414Z,97277.81
2024-01-24T14:54:58.038Z,97265.00
2024-01-24T14:57:24.791Z,97283.06
2024-01-24T14:59:51.543Z,97280.94
2024-01-24T15:02:18.022Z,97274.84
2024-01-24T15:04:44.939Z,97279.09
2024-01-24T15:07:12.936Z,97290.06
2024-01-24T15:09:40.575Z,97292.03
2024-01-24T15:12:07.334Z,97284.34
2024-01-24T15:14:33.912Z,97283.31
2024-01-24T15:17:02.482Z,97301.38
2024-01-24T15:19:31.174Z,97307.72
2024-01-24T15:21:58.623Z,97309.84
2024-01-24T15:24:25.535Z,97306.34
2024-01-24T15:26:58.884Z,97332.34
2024-01-24T15:29:25.848Z,97328.00
2024-01-24T15:31:52.415Z,97342.06
2024-01-24T15:34:20.469Z,97346.97
2024-01-24T15:36:48.377Z,97344.88
2024-01-24T15:39:17.124Z,97352.72
2024-01-24T15:41:47.701Z,97351.50
2024-01-24T15:44:14.340Z,97358.88
2024-01-24T15:46:41.483Z,97362.44
2024-01-24T15:49:10.445Z,97363.56
2024-01-24T15:51:38.125Z,97342.94
2024-01-24T15:54:04.692Z,97363.94
2024-01-24T15:56:31.440Z,97364.84
2024-01-24T15:58:59.391Z,97358.59
2024-01-24T16:01:27.888Z,97364.06
2024-01-24T16:03:56.315Z,97354.72
2024-01-24T16:06:25.549Z,97355.34
2024-01-24T16:08:52.557Z,97387.31
2024-01-24T16:11:19.577Z,97383.28
2024-01-24T16:13:46.246Z,97381.94
2024-01-24T16:16:16.261Z,97372.56
2024-01-24T16:18:44.477Z,97391.00
2024-01-24T16:21:11.304Z,97394.13
2024-01-24T16:23:37.822Z,97381.56
2024-01-24T16:26:04.641Z,97392.41
2024-01-24T16:28:33.136Z,97393.75
2024-01-24T16:31:00.319Z,97390.09
2024-01-24T16:33:28.112Z,97378.88
2024-01-24T16:35:54.868Z,97401.19
2024-01-24T16:38:21.415Z,97404.13
2024-01-24T16:40:48.000Z,97412.56
2024-01-24T16:43:14.855Z,97404.66
2024-01-24T16:45:41.522Z,97413.84
2024-01-24T16:48:08.479Z,97405.69
2024-01-24T16:50:37.189Z,97425.84
2024-01-24T16:53:03.806Z,97416.91
2024-01-24T16:55:33.520Z,97419.91
2024-01-24T16:58:00.256Z,97429.78
2024-01-24T17:00:26.800Z,97424.63
2024-01-24T17:02:58.382Z,97425.16
2024-01-24T17:05:29.727Z,97423.56
2024-01-24T17:07:56.534Z,97422.66
2024-01-24T17:10:23.073Z,97412.94
2024-01-24T17:12:51.236Z,97419.13
2024-01-24T17:15:18.033Z,97418.22
2024-01-24T17:17:45.929Z,97408.38
2024-01-24T17:20:12.802Z,97401.22
2024-01-24T17:22:39.340Z,97408.31
2024-01-24T17:25:08.607Z,97420.19
2024-01-24T17:27:35.767Z,97414.56
2024-01-24T17:30:02.708Z,97419.53
2024-01-24T17:32:35.345Z,97414.56
2024-01-24T17:35:03.119Z,97432.53
2024-01-24T17:37:30.650Z,97425.16
2024-01-24T17:40:08.497Z,97430.00
2024-01-24T17:42:35.378Z,97442.13
2024-01-24T17:45:01.942Z,97444.50
2024-01-24T17:47:31.312Z,97460.59
2024-01-24T17:49:58.979Z,97456.03
2024-01-24T17:52:26.521Z,97456.91
2024-01-24T17:54:53.295Z,97463.44
2024-01-24T17:57:19.904Z,97471.31
2024-01-24T17:59:46.463Z,97480.94
2024-01-24T18:02:13.153Z,97479.84
2024-01-24T18:04:41.826Z,97479.78
2024-01-24T18:07:08.532Z,97479.28
2024-01-24T18:09:35.100Z,97478.22
2024-01-24T18:12:01.767Z,97486.75
2024-01-24T18:14:28.238Z,97489.38
2024-01-24T18:16:54.728Z,97502.28
2024-01-24T18:19:21.331Z,97504.63
2024-01-24T18:21:53.880Z,97502.72
2024-01-24T18:24:21.411Z,97491.66
2024-01-24T18:26:47.935Z,97502.50
2024-01-24T18:29:16.749Z,97497.63
2024-01-24T18:31:43.974Z,97500.28
2024-01-24T18:34:10.679Z,97515.66
2024-01-24T18:36:37.786Z,97510.59
2024-01-24T18:39:04.629Z,97498.00
2024-01-24T18:41:31.708Z,97512.69
2024-01-24T18:43:58.264Z,97520.72
2024-01-24T18:46:26.528Z,97520.97
2024-01-24T18:48:53.494Z,97528.03
2024-01-24T18:51:20.891Z,97525.97
2024-01-24T18:53:47.496Z,97518.38
2024-01-24T18:56:16.341Z,97527.91
2024-01-24T18:58:43.866Z,97536.44
2024-01-24T19:01:11.113Z,97517.00
2024-01-24T19:03:42.638Z,97541.94
2024-01-24T19:06:12.280Z,97536.75
2024-01-24T19:08:42.988Z,97533.97
2024-01-24T19:11:21.626Z,97537.41
2024-01-24T19:13:48.227Z,97530.22
2024-01-24T19:16:14.922Z,97534.75
2024-01-24T19:18:45.971Z,97537.38
2024-01-24T19:21:13.580Z,97531.03
2024-01-24T19:23:40.102Z,97535.16
2024-01-24T19:26:06.613Z,97542.09
2024-01-24T19:28:36.887Z,97548.56
2024-01-24T19:31:05.067Z,97541.13
2024-01-24T19:33:31.771Z,97549.53
2024-01-24T19:35:59.382Z,97535.34
2024-01-24T19:38:28.978Z,97554.50
2024-01-24T19:40:55.533Z,97558.34
2024-01-24T19:43:22.199Z,97544.03
2024-01-24T19:45:48.854Z,97548.28
2024-01-24T19:48:22.824Z,97555.16
2024-01-24T19:50:49.420Z,97549.53
2024-01-24T19:53:20.846Z,97538.53
2024-01-24T19:55:51.521Z,97556.84
2024-01-24T19:58:20.399Z,97548.84
2024-01-24T20:00:48.024Z,97567.59
2024-01-24T20:03:14.518Z,97565.38
2024-01-24T20:05:41.078Z,97565.94
2024-01-24T20:08:07.802Z,97564.59
2024-01-24T20:10:34.533Z,97567.06
2024-01-24T20:13:01.056Z,97568.69
2024-01-24T20:15:34.587Z,97571.19
2024-01-24T20:18:01.242Z,97567.31
2024-01-24T20:20:29.853Z,97560.31
2024-01-24T20:22:56.465Z,97567.44
2024-01-24T20:25:23.026Z,97556.03
2024-01-24T20:27:51.065Z,97566.78
2024-01-24T20:30:21.989Z,97559.06
2024-01-24T20:32:57.417Z,97564.03
2024-01-24T20:35:33.378Z,97556.31
2024-01-24T20:38:01.896Z,97554.09
2024-01-24T20:40:28.449Z,97565.94
2024-01-24T20:42:55.353Z,97568.69
2024-01-24T20:45:21.914Z,97560.44
2024-01-24T20:47:50.524Z,97549.44
2024-01-24T20:50:21.644Z,97552.34
2024-01-24T20:52:51.088Z,97561.25
2024-01-24T20:55:17.934Z,97556.88
2024-01-24T20:57:45.608Z,97560.69
2024-01-24T21:00:12.834Z,97561.41
2024-01-24T21:02:39.497Z,97563.19
2024-01-24T21:05:06.836Z,97563.47
2024-01-24T21:07:33.766Z,97572.13
2024-01-24T21:10:00.447Z,97560.16
2024-01-24T21:12:26.954Z,97551.06
2024-01-24T21:14:57.629Z,97557.00
2024-01-24T21:17:25.197Z,97546.25
2024-01-24T21:19:51.869Z,97554.09
2024-01-24T21:22:18.586Z,97541.84
2024-01-24T21:24:47.290Z,97551.47
2024-01-24T21:27:13.845Z,97564.28
2024-01-24T21:29:43.770Z,97533.97
2024-01-24T21:32:13.126Z,97558.25
2024-01-24T21:34:41.442Z,97564.53
2024-01-24T21:37:08.104Z,97568.56
2024-01-24T21:39:34.792Z,97576.53
2024-01-24T21:42:02.451Z,97585.47
2024-01-24T21:44:28.949Z,97589.72
2024-01-24T21:46:55.487Z,97586.84
2024-01-24T21:49:22.080Z,97582.97
2024-01-24T21:51:48.623Z,97574.75
2024-01-24T21:54:16.694Z,97579.28
2024-01-24T21:56:43.360Z,97584.06
2024-01-24T21:59:10.281Z,97583.00
2024-01-24T22:01:39.097Z,97604.47
2024-01-24T22:04:05.911Z,97607.47
2024-01-24T22:06:32.746Z,97599.25
2024-01-24T22:08:59.499Z,97584.34
2024-01-24T22:11:29.353Z,97597.28
2024-01-24T22:13:56.220Z,97588.47
2024-01-24T22:16:22.758Z,97598.53
2024-01-24T22:18:51.137Z,97599.63
2024-01-24T22:21:18.648Z,97607.31
2024-01-24T22:23:45.433Z,97591.63
2024-01-24T22:26:11.917Z,97592.59
2024-01-24T22:28:38.462Z,97604.97
2024-01-24T22:31:05.190Z,97613.63
2024-01-24T22:33:37.751Z,97622.28
2024-01-24T22:36:04.746Z,97607.38
2024-01-24T22:38:31.413Z,97613.16
2024-01-24T22:40:58.405Z,97608.22
2024-01-24T22:43:25.413Z,97612.63
2024-01-24T22:45:52.010Z,97606.41
2024-01-24T22:48:19.092Z,97612.63
2024-01-24T22:50:45.746Z,97603.88
2024-01-24T22:53:14.362Z,97609.81
2024-01-24T22:55:42.017Z,97623.59
2024-01-24T22:58:08.564Z,97628.94
2024-01-24T23:00:35.125Z,97613.38
2024-01-24T23:03:05.651Z,97615.03
2024-01-24T23:05:32.202Z,97616.91
2024-01-24T23:07:59.333Z,97610.66
2024-01-24T23:10:27.854Z,97609.50
2024-01-24T23:12:54.695Z,97616.34
2024-01-24T23:15:28.402Z,97622.19
2024-01-24T23:17:54.996Z,97624.56
2024-01-24T23:20:22.699Z,97632.66
2024-01-24T23:22:49.260Z,97642.09
2024-01-24T23:25:15.774Z,97637.63
2024-01-24T23:27:42.373Z,97644.38
2024-01-24T23:30:09.473Z,97632.41
2024-01-24T23:32:37.012Z,97639.53
2024-01-24T23:35:04.180Z,97636.78
2024-01-24T23:37:31.932Z,97649.91
2024-01-24T23:39:59.691Z,97650.59
2024-01-24T23:42:26.206Z,97649.56
2024-01-24T23:44:53.806Z,97663.06
2024-01-24T23:47:20.271Z,97652.31
2024-01-24T23:49:47.029Z,97661.38
2024-01-24T23:52:13.925Z,97660.91
2024-01-24T23:54:40.467Z,97651.09
2024-01-24T23:57:07.072Z,97655.06
2024-01-24T23:59:34.306Z,97652.44
